Time;durP1;ratioP1;P1;durP2;ratioP2;P2;SDS_P1;SDS_P2;PMS_P1;PMS_P2;Temp;Humidity;BMP_temperature;BMP_pressure;BME280_temperature;BME280_humidity;BME280_pressure;Samples;Min_cycle;Max_cycle;Signal;HPM_P1;HPM_P2
2021/06/16 00:01:10;;;;;;;2.70;2.30;;;19.00;71.30;;;;;;5062283;28;20414;-63
2021/06/16 00:03:36;;;;;;;5.07;2.65;;;19.00;71.50;;;;;;5062770;28;20483;-63
2021/06/16 00:06:02;;;;;;;3.10;2.40;;;18.90;71.70;;;;;;5057936;28;20396;-63
2021/06/16 00:08:28;;;;;;;6.05;2.83;;;19.00;72.00;;;;;;5064492;28;20247;-63
2021/06/16 00:10:54;;;;;;;7.22;2.53;;;18.90;72.30;;;;;;5057718;28;20036;-63
2021/06/16 00:13:20;;;;;;;3.47;2.38;;;18.90;72.80;;;;;;5061307;28;20032;-63
2021/06/16 00:15:47;;;;;;;2.90;2.38;;;18.90;73.10;;;;;;5059772;28;20024;-64
2021/06/16 00:18:13;;;;;;;3.97;2.50;;;18.80;73.00;;;;;;5062507;28;20025;-63
2021/06/16 00:20:39;;;;;;;3.72;2.30;;;18.80;73.20;;;;;;5070322;28;20040;-63
2021/06/16 00:23:06;;;;;;;2.97;2.22;;;18.70;73.70;;;;;;5069783;28;20020;-62
2021/06/16 00:25:32;;;;;;;3.38;2.75;;;18.70;74.00;;;;;;5070507;28;20025;-63
2021/06/16 00:27:58;;;;;;;3.83;2.90;;;18.70;74.60;;;;;;5073830;28;20070;-63
2021/06/16 00:30:24;;;;;;;3.83;2.83;;;18.60;75.10;;;;;;5074409;28;20048;-63
2021/06/16 00:32:51;;;;;;;4.03;2.67;;;18.60;75.60;;;;;;5073674;28;20028;-62
2021/06/16 00:35:20;;;;;;;2.58;2.38;;;18.60;76.10;;;;;;5056566;28;20033;-62
2021/06/16 00:37:51;;;;;;;4.53;2.63;;;18.60;76.40;;;;;;5072862;28;20096;-63
2021/06/16 00:40:23;;;;;;;3.63;2.75;;;18.60;76.90;;;;;;5074360;28;20025;-62
2021/06/16 00:42:49;;;;;;;3.13;2.42;;;18.60;77.40;;;;;;5073027;28;20094;-63
2021/06/16 00:45:17;;;;;;;3.58;2.65;;;18.50;77.90;;;;;;5073670;28;20028;-63
2021/06/16 00:47:43;;;;;;;3.85;2.80;;;18.50;78.20;;;;;;5073667;28;20078;-62
2021/06/16 00:50:10;;;;;;;3.03;2.70;;;18.50;79.00;;;;;;5073141;28;20032;-62
2021/06/16 00:52:35;;;;;;;3.03;2.55;;;18.40;79.50;;;;;;5073780;28;20048;-63
2021/06/16 00:55:01;;;;;;;4.75;2.97;;;18.40;80.10;;;;;;5064664;28;20078;-62
2021/06/16 00:57:27;;;;;;;3.35;2.75;;;18.40;80.50;;;;;;5073749;28;20020;-62
2021/06/16 01:00:12;;;;;;;4.93;3.22;;;18.40;80.80;;;;;;5072767;28;20148;-63
2021/06/16 01:03:02;;;;;;;3.60;2.70;;;18.30;81.20;;;;;;5074379;28;20028;-62
2021/06/16 01:05:36;;;;;;;4.20;3.72;;;18.30;81.20;;;;;;5041493;28;20090;-62
2021/06/16 01:08:03;;;;;;;5.68;3.15;;;18.20;81.70;;;;;;5072191;28;20032;-63
2021/06/16 01:10:34;;;;;;;5.82;3.38;;;18.20;82.20;;;;;;5057840;28;20518;-62
2021/06/16 01:13:02;;;;;;;4.13;3.13;;;18.20;82.70;;;;;;5072063;28;20021;-63
2021/06/16 01:15:37;;;;;;;4.82;3.38;;;18.20;83.10;;;;;;5073579;28;20185;-62
2021/06/16 01:18:03;;;;;;;7.18;3.60;;;18.10;83.70;;;;;;5072622;28;20032;-62
2021/06/16 01:20:38;;;;;;;4.85;3.22;;;18.10;84.50;;;;;;5073035;28;20071;-63
2021/06/16 01:23:16;;;;;;;5.15;3.75;;;18.10;85.10;;;;;;5072156;28;20838;-62
2021/06/16 01:26:00;;;;;;;4.80;3.30;;;18.10;86.00;;;;;;5073172;28;20020;-62
2021/06/16 01:28:32;;;;;;;5.38;3.50;;;18.00;86.60;;;;;;5066344;28;20024;-63
2021/06/16 01:30:59;;;;;;;5.25;3.40;;;18.00;87.30;;;;;;5072360;28;20492;-63
2021/06/16 01:33:25;;;;;;;5.72;3.80;;;17.90;88.40;;;;;;5073140;28;20024;-63
2021/06/16 01:35:54;;;;;;;6.78;3.92;;;18.00;89.00;;;;;;5072251;28;20364;-63
2021/06/16 01:38:22;;;;;;;4.22;2.90;;;17.90;89.10;;;;;;5063374;28;20036;-62
2021/06/16 01:40:51;;;;;;;4.85;3.42;;;17.90;89.00;;;;;;5071986;28;20029;-63
2021/06/16 01:43:18;;;;;;;4.30;3.20;;;17.90;89.50;;;;;;5064451;28;20108;-63
2021/06/16 01:45:46;;;;;;;5.07;3.70;;;17.80;89.40;;;;;;5071850;28;20039;-63
2021/06/16 01:48:16;;;;;;;4.47;3.60;;;17.80;90.00;;;;;;5072314;28;20052;-63
2021/06/16 01:50:42;;;;;;;;;;;17.80;90.40;;;;;;5073450;28;20025;-63
2021/06/16 01:53:09;;;;;;;5.65;3.28;;;17.80;90.70;;;;;;5070947;28;19916;-63
2021/06/16 01:55:36;;;;;;;5.50;3.15;;;17.80;91.10;;;;;;5072347;28;20051;-63
2021/06/16 01:58:02;;;;;;;4.20;2.65;;;17.80;91.10;;;;;;5053869;28;20530;-63
2021/06/16 02:00:29;;;;;;;5.45;3.20;;;17.70;91.20;;;;;;5072559;28;20024;-63
2021/06/16 02:02:56;;;;;;;4.75;2.83;;;17.70;91.50;;;;;;5072243;28;20150;-63
2021/06/16 02:05:26;;;;;;;5.35;3.00;;;17.70;91.80;;;;;;5072160;28;20046;-64
2021/06/16 02:08:17;;;;;;;4.80;2.97;;;17.70;92.10;;;;;;5067258;28;20366;-63
2021/06/16 02:10:46;;;;;;;4.22;3.20;;;17.60;92.50;;;;;;5050178;28;20040;-63
2021/06/16 02:13:14;;;;;;;5.60;3.17;;;17.60;92.90;;;;;;5071324;28;20119;-63
2021/06/16 02:15:47;;;;;;;4.78;3.20;;;17.60;93.20;;;;;;5071927;28;20846;-63
2021/06/16 02:18:14;;;;;;;3.35;2.80;;;17.60;93.20;;;;;;5071434;28;20021;-63
2021/06/16 02:20:40;;;;;;;4.85;3.50;;;17.60;93.50;;;;;;5071281;28;20028;-63
2021/06/16 02:23:06;;;;;;;5.03;3.40;;;17.60;93.70;;;;;;5071196;28;20025;-63
2021/06/16 02:25:32;;;;;;;5.47;3.55;;;17.50;94.10;;;;;;5071754;28;20112;-63
2021/06/16 02:27:58;;;;;;;3.55;3.15;;;17.50;94.30;;;;;;5071261;28;20115;-63
2021/06/16 02:30:24;;;;;;;3.83;3.00;;;17.50;94.40;;;;;;5071522;28;20104;-64
2021/06/16 02:32:49;;;;;;;4.05;3.05;;;17.50;94.60;;;;;;5070929;28;20035;-64
2021/06/16 02:35:16;;;;;;;6.40;3.58;;;17.50;95.10;;;;;;5069676;28;20040;-63
2021/06/16 02:37:47;;;;;;;5.05;2.90;;;17.50;95.00;;;;;;5071653;28;20032;-63
2021/06/16 02:40:16;;;;;;;4.20;2.85;;;17.50;95.30;;;;;;5067576;28;20104;-63
2021/06/16 02:42:48;;;;;;;6.20;3.50;;;17.40;95.60;;;;;;5053076;28;20474;-63
2021/06/16 02:45:16;;;;;;;6.35;3.22;;;17.40;96.10;;;;;;5060099;28;20466;-63
2021/06/16 02:47:47;;;;;;;5.32;3.10;;;17.40;96.20;;;;;;5062718;28;20035;-64
2021/06/16 02:50:16;;;;;;;4.28;2.95;;;17.40;96.20;;;;;;5060373;28;20040;-63
2021/06/16 02:52:43;;;;;;;5.43;2.93;;;17.40;96.30;;;;;;5061715;28;20078;-63
2021/06/16 02:55:10;;;;;;;3.40;2.78;;;17.40;96.40;;;;;;5062144;28;20035;-63
2021/06/16 02:57:39;;;;;;;6.63;3.05;;;17.40;96.60;;;;;;5058247;28;20029;-63
2021/06/16 03:00:09;;;;;;;3.58;2.85;;;17.40;96.80;;;;;;5058029;28;20029;-63
2021/06/16 03:02:38;;;;;;;6.53;3.10;;;17.40;96.80;;;;;;5060481;28;20032;-63
2021/06/16 03:05:05;;;;;;;5.20;2.70;;;17.30;96.90;;;;;;5061918;28;20060;-63
2021/06/16 03:07:34;;;;;;;4.13;3.33;;;17.40;96.90;;;;;;5056479;28;20466;-63
2021/06/16 03:10:00;;;;;;;5.55;2.88;;;17.30;97.00;;;;;;5061847;28;20074;-63
2021/06/16 03:12:27;;;;;;;6.20;2.70;;;17.30;96.90;;;;;;5064200;28;20048;-63
2021/06/16 03:14:53;;;;;;;4.53;3.13;;;17.30;97.20;;;;;;5061111;28;20040;-63
2021/06/16 03:17:19;;;;;;;5.28;3.08;;;17.30;97.20;;;;;;5062117;28;20040;-63
2021/06/16 03:19:47;;;;;;;2.97;2.72;;;17.30;97.40;;;;;;5061095;28;20047;-63
2021/06/16 03:22:13;;;;;;;5.88;3.38;;;17.20;97.70;;;;;;5060541;28;20028;-63
2021/06/16 03:24:43;;;;;;;7.72;3.40;;;17.20;97.80;;;;;;5062017;28;20046;-63
2021/06/16 03:27:09;;;;;;;3.90;2.83;;;17.20;97.70;;;;;;5061763;28;20550;-63
2021/06/16 03:29:37;;;;;;;4.18;3.00;;;17.20;97.70;;;;;;5060971;28;20098;-63
2021/06/16 03:32:06;;;;;;;4.35;3.40;;;17.20;97.80;;;;;;5061948;28;20032;-63
2021/06/16 03:34:32;;;;;;;3.20;2.90;;;17.20;97.90;;;;;;5061143;28;20028;-63
2021/06/16 03:37:00;;;;;;;3.60;3.17;;;17.20;98.00;;;;;;5059456;28;20463;-63
2021/06/16 03:39:28;;;;;;;3.78;3.33;;;17.20;98.20;;;;;;5063849;28;20104;-63
2021/06/16 03:41:54;;;;;;;4.47;3.10;;;17.20;98.40;;;;;;5061811;28;20470;-63
2021/06/16 03:44:21;;;;;;;4.57;3.28;;;17.20;98.40;;;;;;5064629;28;20037;-63
2021/06/16 03:46:48;;;;;;;6.32;3.10;;;17.20;98.30;;;;;;5062743;28;20053;-63
2021/06/16 03:49:17;;;;;;;3.95;3.15;;;17.20;98.10;;;;;;5057422;28;20035;-63
2021/06/16 03:51:43;;;;;;;6.90;3.17;;;17.20;98.00;;;;;;5057940;28;20039;-63
2021/06/16 03:54:15;;;;;;;4.50;3.42;;;17.30;98.00;;;;;;5057805;28;20708;-63
2021/06/16 03:56:42;;;;;;;4.32;3.60;;;17.30;98.10;;;;;;5058080;28;20029;-63
2021/06/16 03:59:08;;;;;;;4.05;3.20;;;17.30;98.20;;;;;;5059668;28;20131;-64
2021/06/16 04:01:37;;;;;;;4.88;2.88;;;17.40;98.20;;;;;;5068900;28;20036;-63
2021/06/16 04:04:04;;;;;;;4.95;3.35;;;17.50;97.30;;;;;;5073898;28;20107;-63
2021/06/16 04:06:31;;;;;;;5.30;3.22;;;17.50;97.20;;;;;;5074458;28;20050;-63
2021/06/16 04:08:57;;;;;;;6.35;3.65;;;17.50;97.00;;;;;;5067578;28;20029;-63
2021/06/16 04:11:23;;;;;;;5.13;2.95;;;17.60;97.00;;;;;;5072612;28;20145;-65
2021/06/16 04:13:49;;;;;;;5.03;2.85;;;17.60;96.70;;;;;;5074076;28;20032;-64
2021/06/16 04:16:16;;;;;;;4.10;2.72;;;17.70;96.40;;;;;;5074041;28;20032;-63
2021/06/16 04:18:42;;;;;;;5.28;3.40;;;17.70;96.20;;;;;;5067118;28;20120;-62
2021/06/16 04:21:08;;;;;;;7.70;4.00;;;17.80;96.20;;;;;;5058393;28;20071;-62
2021/06/16 04:23:34;;;;;;;3.95;2.75;;;17.80;96.70;;;;;;5072525;28;20040;-62
2021/06/16 04:25:59;;;;;;;4.57;2.67;;;17.90;96.40;;;;;;5073454;28;20085;-62
2021/06/16 04:28:25;;;;;;;3.53;3.22;;;17.90;96.50;;;;;;5074418;28;20040;-62
2021/06/16 04:30:51;;;;;;;3.55;2.53;;;18.00;96.30;;;;;;5073657;28;20039;-66
2021/06/16 04:33:17;;;;;;;2.88;2.60;;;18.00;95.90;;;;;;5069975;28;20367;-63
2021/06/16 04:35:43;;;;;;;3.38;2.80;;;18.10;95.50;;;;;;5074914;28;20108;-63
2021/06/16 04:38:09;;;;;;;4.82;3.08;;;18.10;95.10;;;;;;5073474;28;20060;-63
2021/06/16 04:40:35;;;;;;;3.63;3.00;;;18.20;94.70;;;;;;5069396;28;20075;-63
2021/06/16 04:43:00;;;;;;;4.50;3.35;;;18.30;94.40;;;;;;5072460;28;20032;-63
2021/06/16 04:45:26;;;;;;;3.25;2.95;;;18.40;94.80;;;;;;5072945;28;20124;-63
2021/06/16 04:47:52;;;;;;;5.47;3.42;;;18.50;94.20;;;;;;5072477;28;20028;-63
2021/06/16 04:50:18;;;;;;;6.03;3.80;;;18.50;93.90;;;;;;5055284;28;20241;-63
2021/06/16 04:52:44;;;;;;;5.72;3.42;;;18.60;93.70;;;;;;5073607;28;20491;-63
2021/06/16 04:55:11;;;;;;;6.32;3.83;;;18.70;93.40;;;;;;5071924;28;20094;-63
2021/06/16 04:57:38;;;;;;;5.50;3.13;;;18.80;93.10;;;;;;5065047;28;20033;-63
2021/06/16 05:00:09;;;;;;;5.57;4.03;;;18.90;92.80;;;;;;5063546;28;20032;-63
2021/06/16 05:02:35;;;;;;;5.97;3.97;;;18.90;92.40;;;;;;5064851;28;20029;-63
2021/06/16 05:05:01;;;;;;;9.82;4.20;;;19.00;92.20;;;;;;5062253;28;20036;-63
2021/06/16 05:07:26;;;;;;;6.90;4.05;;;19.10;92.10;;;;;;5060407;28;20037;-63
2021/06/16 05:09:52;;;;;;;7.97;4.90;;;19.20;91.90;;;;;;5060992;28;20479;-63
2021/06/16 05:12:17;;;;;;;6.70;4.75;;;19.30;91.50;;;;;;5062349;28;20064;-63
2021/06/16 05:14:43;;;;;;;6.15;4.57;;;19.40;91.30;;;;;;5064818;28;20366;-62
2021/06/16 05:17:09;;;;;;;7.40;4.72;;;19.50;90.50;;;;;;5062822;28;20036;-63
2021/06/16 05:19:35;;;;;;;8.00;5.00;;;19.60;90.10;;;;;;5064308;28;20048;-63
2021/06/16 05:22:13;;;;;;;8.65;4.50;;;19.60;89.60;;;;;;5061906;28;20498;-63
2021/06/16 05:24:39;;;;;;;7.95;4.85;;;19.70;89.70;;;;;;5061991;28;20446;-63
2021/06/16 05:27:06;;;;;;;6.15;4.00;;;19.70;89.10;;;;;;5043986;28;20037;-63
2021/06/16 05:29:31;;;;;;;6.38;4.20;;;19.70;89.00;;;;;;5064668;28;20474;-63
2021/06/16 05:31:57;;;;;;;5.93;3.78;;;19.80;88.70;;;;;;5072689;28;20065;-63
2021/06/16 05:34:23;;;;;;;5.78;3.83;;;19.80;88.00;;;;;;5072782;28;20028;-63
2021/06/16 05:36:48;;;;;;;6.95;3.78;;;19.90;86.60;;;;;;5072747;28;20032;-63
2021/06/16 05:39:14;;;;;;;6.82;4.35;;;20.10;84.70;;;;;;5071401;28;20432;-63
2021/06/16 05:41:40;;;;;;;6.03;4.40;;;20.20;83.40;;;;;;5071987;28;20067;-64
2021/06/16 05:44:05;;;;;;;6.03;4.28;;;20.30;85.50;;;;;;5072164;28;20043;-64
2021/06/16 05:46:31;;;;;;;7.22;4.38;;;20.30;84.90;;;;;;5071918;28;20025;-64
2021/06/16 05:48:56;;;;;;;11.48;4.60;;;20.40;82.60;;;;;;5071324;28;20063;-64
2021/06/16 05:51:22;;;;;;;9.65;4.10;;;20.50;83.50;;;;;;5072414;28;20053;-64
2021/06/16 05:53:48;;;;;;;5.43;4.18;;;20.60;83.60;;;;;;5072395;28;20131;-64
2021/06/16 05:56:14;;;;;;;5.30;4.30;;;20.70;83.80;;;;;;5071267;28;20033;-64
2021/06/16 05:58:39;;;;;;;6.30;5.00;;;20.70;83.60;;;;;;5072347;28;20028;-64
2021/06/16 06:01:05;;;;;;;7.70;4.72;;;20.80;82.10;;;;;;5070919;28;20024;-64
2021/06/16 06:03:31;;;;;;;6.93;4.03;;;20.90;81.20;;;;;;5072395;28;20469;-64
2021/06/16 06:05:56;;;;;;;6.65;3.92;;;21.00;80.80;;;;;;5070900;28;20358;-64
2021/06/16 06:08:22;;;;;;;6.60;3.92;;;21.10;80.20;;;;;;5071440;28;20533;-64
2021/06/16 06:10:48;;;;;;;6.53;4.20;;;21.10;79.90;;;;;;5071993;28;20035;-65
2021/06/16 06:13:14;;;;;;;8.90;4.30;;;21.20;79.50;;;;;;5071546;28;20060;-72
2021/06/16 06:15:40;;;;;;;8.82;4.93;;;21.40;78.70;;;;;;5072318;28;20063;-78
2021/06/16 06:18:06;;;;;;;8.48;4.28;;;21.40;78.20;;;;;;5072812;28;20033;-68
2021/06/16 06:20:31;;;;;;;9.73;3.97;;;21.50;77.20;;;;;;5071303;28;20449;-67
2021/06/16 06:22:57;;;;;;;8.68;4.43;;;21.60;76.60;;;;;;5071088;28;20111;-67
2021/06/16 06:25:24;;;;;;;7.93;4.07;;;21.80;76.70;;;;;;5071613;28;20037;-69
2021/06/16 06:27:49;;;;;;;9.43;4.43;;;21.80;76.80;;;;;;5066492;28;20032;-67
2021/06/16 06:30:15;;;;;;;9.68;4.30;;;22.00;75.60;;;;;;5072717;28;20471;-67
2021/06/16 06:32:41;;;;;;;6.05;3.70;;;22.00;74.40;;;;;;5071802;28;20358;-67
2021/06/16 06:35:08;;;;;;;7.85;4.50;;;22.20;74.60;;;;;;5070657;28;20043;-67
2021/06/16 06:37:34;;;;;;;6.25;3.72;;;22.30;73.70;;;;;;5071718;28;20409;-68
2021/06/16 06:39:59;;;;;;;7.75;4.65;;;22.50;73.10;;;;;;5070452;28;20033;-67
2021/06/16 06:42:25;;;;;;;8.13;3.88;;;22.70;73.00;;;;;;5067352;28;20074;-67
2021/06/16 06:44:51;;;;;;;10.05;4.45;;;22.80;72.10;;;;;;5071479;28;20069;-67
2021/06/16 06:47:17;;;;;;;6.55;4.20;;;22.90;71.70;;;;;;5070544;28;20427;-67
2021/06/16 06:49:43;;;;;;;11.32;4.20;;;22.90;71.10;;;;;;5071034;28;20024;-67
2021/06/16 06:52:08;;;;;;;7.00;4.22;;;23.00;71.50;;;;;;5052365;28;20032;-67
2021/06/16 06:54:35;;;;;;;7.20;3.83;;;23.00;71.00;;;;;;5071130;28;20490;-67
2021/06/16 06:57:02;;;;;;;6.15;4.68;;;23.10;71.10;;;;;;5063010;28;20048;-68
2021/06/16 06:59:28;;;;;;;11.88;5.57;;;23.20;70.00;;;;;;5071049;28;20020;-67
2021/06/16 07:01:53;;;;;;;9.82;4.20;;;23.30;69.10;;;;;;5070463;28;20039;-67
2021/06/16 07:04:19;;;;;;;10.30;4.40;;;23.40;69.90;;;;;;5070818;28;20043;-67
2021/06/16 07:06:45;;;;;;;7.57;4.40;;;23.40;69.50;;;;;;5070722;28;20029;-67
2021/06/16 07:09:10;;;;;;;10.00;3.65;;;23.50;69.00;;;;;;5049263;28;20033;-67
2021/06/16 07:11:36;;;;;;;13.80;5.00;;;23.60;69.00;;;;;;5068185;28;20021;-67
2021/06/16 07:14:02;;;;;;;10.63;4.43;;;23.80;68.00;;;;;;5065645;28;20028;-67
2021/06/16 07:16:27;;;;;;;8.00;4.60;;;23.90;67.50;;;;;;5064737;28;20040;-67
2021/06/16 07:18:53;;;;;;;8.60;4.35;;;23.90;67.40;;;;;;5070565;28;20050;-67
2021/06/16 07:21:19;;;;;;;7.85;4.57;;;24.00;67.30;;;;;;5069639;28;20568;-67
2021/06/16 07:23:44;;;;;;;11.25;4.28;;;24.10;67.00;;;;;;5070851;28;20481;-68
2021/06/16 07:26:10;;;;;;;9.50;4.85;;;24.10;67.20;;;;;;5066575;28;20043;-67
2021/06/16 07:28:36;;;;;;;9.15;4.60;;;24.30;66.00;;;;;;5054192;28;20126;-67
2021/06/16 07:31:02;;;;;;;11.98;4.47;;;24.40;67.10;;;;;;5069372;28;20541;-67
2021/06/16 07:33:28;;;;;;;8.32;3.88;;;24.60;65.70;;;;;;5070143;28;20064;-67
2021/06/16 07:35:53;;;;;;;9.13;4.10;;;24.70;65.90;;;;;;5070943;28;20101;-67
2021/06/16 07:38:20;;;;;;;8.75;3.83;;;24.90;64.60;;;;;;5055474;28;20029;-67
2021/06/16 07:40:46;;;;;;;6.72;3.92;;;24.90;64.50;;;;;;5056859;28;20440;-67
2021/06/16 07:43:12;;;;;;;7.13;4.15;;;25.10;64.00;;;;;;5073862;28;20032;-67
2021/06/16 07:45:37;;;;;;;13.38;4.25;;;25.20;64.00;;;;;;5072817;28;20036;-67
2021/06/16 07:48:03;;;;;;;14.70;4.53;;;25.40;63.00;;;;;;5072846;28;20059;-67
2021/06/16 07:50:29;;;;;;;10.27;4.35;;;25.50;63.70;;;;;;5066253;28;20037;-67
2021/06/16 07:52:56;;;;;;;14.88;4.07;;;25.60;62.60;;;;;;5074437;28;20074;-66
2021/06/16 07:55:23;;;;;;;8.75;4.07;;;25.80;62.00;;;;;;5073971;28;20039;-66
2021/06/16 07:57:49;;;;;;;13.20;3.63;;;25.80;61.30;;;;;;5070686;28;20492;-66
2021/06/16 08:00:15;;;;;;;6.93;3.88;;;25.90;62.70;;;;;;5074070;28;20029;-66
2021/06/16 08:02:41;;;;;;;9.63;4.28;;;26.00;61.20;;;;;;5056712;28;20066;-66
2021/06/16 08:05:07;;;;;;;7.40;3.90;;;26.00;61.00;;;;;;5074076;28;20044;-66
2021/06/16 08:07:33;;;;;;;6.95;3.47;;;26.20;60.20;;;;;;5067903;28;20025;-67
2021/06/16 08:09:59;;;;;;;6.65;3.70;;;26.30;60.20;;;;;;5074304;28;20133;-66
2021/06/16 08:12:25;;;;;;;8.25;3.47;;;26.40;59.50;;;;;;5074262;28;20024;-66
2021/06/16 08:14:50;;;;;;;8.18;3.88;;;26.50;59.70;;;;;;5073984;28;20466;-66
2021/06/16 08:17:16;;;;;;;6.63;3.25;;;26.60;59.00;;;;;;5073493;28;20104;-66
2021/06/16 08:19:42;;;;;;;6.68;3.60;;;26.70;58.60;;;;;;5074175;28;20047;-66
2021/06/16 08:22:10;;;;;;;4.63;3.25;;;26.80;58.50;;;;;;5073687;28;20119;-67
2021/06/16 08:24:37;;;;;;;6.75;3.25;;;26.90;58.10;;;;;;5073874;28;20042;-66
2021/06/16 08:27:03;;;;;;;7.53;3.70;;;27.00;58.40;;;;;;5072508;28;20054;-67
2021/06/16 08:29:29;;;;;;;7.45;3.45;;;27.10;57.30;;;;;;5074189;28;20032;-67
2021/06/16 08:31:55;;;;;;;10.10;4.40;;;27.10;58.20;;;;;;5074718;28;20488;-66
2021/06/16 08:34:20;;;;;;;9.15;3.45;;;27.30;57.60;;;;;;5073545;28;20780;-67
2021/06/16 08:36:47;;;;;;;7.75;4.05;;;27.40;56.50;;;;;;5073195;28;20060;-67
2021/06/16 08:39:13;;;;;;;5.45;3.30;;;27.50;55.90;;;;;;5073542;28;20029;-67
2021/06/16 08:41:42;;;;;;;9.07;3.67;;;27.50;56.40;;;;;;5058583;28;20130;-67
2021/06/16 08:44:09;;;;;;;7.47;3.75;;;27.60;55.40;;;;;;5069759;28;20108;-68
2021/06/16 08:46:35;;;;;;;11.68;3.55;;;27.70;55.50;;;;;;5074388;28;20115;-67
2021/06/16 08:49:06;;;;;;;9.48;3.17;;;27.90;55.90;;;;;;5074277;28;20028;-67
2021/06/16 08:51:33;;;;;;;4.95;2.90;;;28.20;54.20;;;;;;5072537;28;20036;-67
2021/06/16 08:53:59;;;;;;;9.73;3.38;;;28.30;53.10;;;;;;5073349;28;20546;-68
2021/06/16 08:56:25;;;;;;;6.75;2.92;;;28.40;53.60;;;;;;5064820;28;20111;-67
2021/06/16 08:58:51;;;;;;;4.07;2.40;;;28.50;51.30;;;;;;5074029;28;20070;-68
2021/06/16 09:01:16;;;;;;;5.25;2.35;;;28.50;48.90;;;;;;5073253;28;20055;-68
2021/06/16 09:03:42;;;;;;;4.15;2.55;;;28.60;48.90;;;;;;5072437;28;20036;-67
2021/06/16 09:06:13;;;;;;;3.17;2.20;;;28.70;49.40;;;;;;5073059;28;20040;-68
2021/06/16 09:08:57;;;;;;;4.55;2.83;;;28.90;49.00;;;;;;5071804;28;20082;-68
2021/06/16 09:11:25;;;;;;;2.15;1.95;;;29.10;48.00;;;;;;5069273;28;20028;-67
2021/06/16 09:14:08;;;;;;;5.03;1.90;;;29.20;47.90;;;;;;5055523;28;20032;-67
2021/06/16 09:16:34;;;;;;;5.75;2.60;;;29.30;49.00;;;;;;5072961;28;20036;-68
2021/06/16 09:19:00;;;;;;;9.23;2.55;;;29.60;49.10;;;;;;5072594;28;20439;-68
2021/06/16 09:21:35;;;;;;;6.30;2.60;;;29.70;48.20;;;;;;5072316;28;20032;-67
2021/06/16 09:24:01;;;;;;;7.80;2.60;;;29.80;48.40;;;;;;5064092;28;20028;-68
2021/06/16 09:26:37;;;;;;;9.88;3.08;;;29.80;49.00;;;;;;5066925;28;20094;-68
2021/06/16 09:29:05;;;;;;;10.02;2.88;;;29.80;49.30;;;;;;5064897;28;20070;-68
2021/06/16 09:31:42;;;;;;;8.23;2.95;;;29.80;49.60;;;;;;5072340;28;20359;-67
2021/06/16 09:34:16;;;;;;;4.47;2.42;;;29.80;49.00;;;;;;5065017;28;20039;-67
2021/06/16 09:36:51;;;;;;;9.73;3.33;;;29.90;49.00;;;;;;5071790;28;20100;-67
2021/06/16 09:39:23;;;;;;;4.00;2.95;;;29.90;48.80;;;;;;5072514;28;20036;-67
2021/06/16 09:41:52;;;;;;;7.22;2.63;;;30.00;48.40;;;;;;5072879;28;20032;-68
2021/06/16 09:44:45;;;;;;;4.82;2.78;;;30.10;48.50;;;;;;5072208;28;20063;-67
2021/06/16 09:47:20;;;;;;;13.73;3.35;;;30.30;48.70;;;;;;5070080;28;20044;-67
2021/06/16 09:49:54;;;;;;;10.27;2.85;;;30.30;47.70;;;;;;5071969;28;20031;-68
2021/06/16 09:52:38;;;;;;;25.33;3.38;;;30.40;47.90;;;;;;5072422;28;20054;-68
2021/06/16 09:55:23;;;;;;;5.78;2.88;;;30.40;47.90;;;;;;5071894;28;20048;-67
2021/06/16 09:58:00;;;;;;;5.22;2.60;;;30.50;47.50;;;;;;5072291;28;20078;-67
2021/06/16 10:00:30;;;;;;;16.48;2.90;;;30.60;46.80;;;;;;5063873;28;20107;-67
2021/06/16 10:03:09;;;;;;;8.45;2.95;;;30.80;47.10;;;;;;5072335;28;20035;-68
2021/06/16 10:05:55;;;;;;;7.93;2.95;;;31.00;45.00;;;;;;5062578;28;21013;-67
2021/06/16 10:08:25;;;;;;;12.43;2.80;;;31.00;45.20;;;;;;5071216;28;20029;-67
2021/06/16 10:10:54;;;;;;;6.60;2.63;;;31.10;44.90;;;;;;5066686;28;20040;-67
2021/06/16 10:13:21;;;;;;;2.90;2.60;;;31.10;44.50;;;;;;5071656;28;20376;-68
2021/06/16 10:15:47;;;;;;;6.45;2.70;;;31.10;43.70;;;;;;5070805;28;20042;-68
2021/06/16 10:18:13;;;;;;;25.00;3.03;;;31.20;43.00;;;;;;5063621;28;20115;-67
2021/06/16 10:20:38;;;;;;;5.32;2.47;;;31.40;44.00;;;;;;5071320;28;20033;-67
2021/06/16 10:23:04;;;;;;;10.02;2.97;;;31.50;43.60;;;;;;5071762;28;20028;-66
2021/06/16 10:25:30;;;;;;;16.20;2.80;;;31.60;42.20;;;;;;5070236;28;20104;-67
2021/06/16 10:28:00;;;;;;;7.43;2.90;;;31.60;41.90;;;;;;5053326;28;20135;-67
2021/06/16 10:30:30;;;;;;;11.10;6.05;;;31.50;42.10;;;;;;5070385;28;20490;-67
2021/06/16 10:32:56;;;;;;;28.77;11.95;;;31.50;41.90;;;;;;5071780;28;20039;-67
2021/06/16 10:35:21;;;;;;;7.88;2.85;;;31.60;41.30;;;;;;5071498;28;20041;-66
2021/06/16 10:37:47;;;;;;;3.38;2.33;;;31.60;40.50;;;;;;5071028;28;20058;-67
2021/06/16 10:40:13;;;;;;;8.13;4.50;;;31.80;39.30;;;;;;5071499;28;20099;-66
2021/06/16 10:43:09;;;;;;;7.20;3.63;;;31.90;39.50;;;;;;5070635;28;20039;-67
2021/06/16 10:45:41;;;;;;;4.80;3.00;;;31.90;38.90;;;;;;5070854;28;20025;-67
2021/06/16 10:48:10;;;;;;;5.88;3.58;;;31.90;39.70;;;;;;5063812;28;20025;-66
2021/06/16 10:50:45;;;;;;;5.50;3.03;;;31.90;40.20;;;;;;5070356;28;20048;-67
2021/06/16 10:53:12;;;;;;;3.42;2.60;;;32.10;41.00;;;;;;5071041;28;20052;-66
2021/06/16 10:55:53;;;;;;;5.68;2.67;;;32.20;40.50;;;;;;5070450;28;20037;-67
2021/06/16 10:58:45;;;;;;;5.72;2.45;;;32.40;40.20;;;;;;5071309;28;20083;-67
2021/06/16 11:01:13;;;;;;;4.75;2.80;;;32.60;40.60;;;;;;5060635;28;20087;-66
2021/06/16 11:03:59;;;;;;;5.78;2.38;;;32.60;40.20;;;;;;5070354;28;20033;-67
2021/06/16 11:06:36;;;;;;;5.40;2.75;;;32.50;40.20;;;;;;5053460;28;20036;-67
2021/06/16 11:09:03;;;;;;;6.57;2.70;;;32.40;40.20;;;;;;5070844;28;20111;-66
2021/06/16 11:12:03;;;;;;;17.98;2.75;;;32.40;40.60;;;;;;5069511;28;20112;-67
2021/06/16 11:14:35;;;;;;;6.88;2.58;;;32.50;41.10;;;;;;5023872;28;20047;-67
2021/06/16 11:17:09;;;;;;;18.33;2.92;;;32.60;40.80;;;;;;5071133;28;20082;-66
2021/06/16 11:19:34;;;;;;;7.32;2.60;;;32.50;40.30;;;;;;5052429;28;20059;-66
2021/06/16 11:22:03;;;;;;;3.92;2.38;;;32.50;40.90;;;;;;5071214;28;20064;-67
2021/06/16 11:25:03;;;;;;;9.80;3.60;;;32.50;40.90;;;;;;5052033;28;20040;-67
2021/06/16 11:27:47;;;;;;;;;;;32.60;40.80;;;;;;5063822;28;20082;-66
2021/06/16 11:30:14;;;;;;;5.10;2.53;;;32.70;41.00;;;;;;5071272;28;19909;-67
2021/06/16 11:32:40;;;;;;;9.20;3.00;;;32.80;40.60;;;;;;5070239;28;20350;-66
2021/06/16 11:35:06;;;;;;;7.60;3.38;;;32.90;40.40;;;;;;5070417;28;20039;-67
2021/06/16 11:37:59;;;;;;;7.53;2.90;;;33.00;41.30;;;;;;5070020;28;20510;-67
2021/06/16 11:40:26;;;;;;;4.82;2.85;;;33.10;40.70;;;;;;5063073;28;20114;-67
2021/06/16 11:42:52;;;;;;;9.38;2.90;;;33.00;40.60;;;;;;5070474;28;20031;-67
2021/06/16 11:45:18;;;;;;;5.35;2.72;;;32.90;40.50;;;;;;5070790;28;20428;-66
2021/06/16 11:47:52;;;;;;;4.97;2.75;;;33.10;40.10;;;;;;5070127;28;20025;-67
2021/06/16 11:50:28;;;;;;;6.13;2.75;;;33.20;40.40;;;;;;5071073;28;20086;-66
2021/06/16 11:53:05;;;;;;;4.78;2.60;;;33.20;40.60;;;;;;5063593;28;20094;-67
2021/06/16 11:55:47;;;;;;;3.58;2.45;;;33.30;39.60;;;;;;5070025;28;20028;-67
2021/06/16 11:58:25;;;;;;;2.55;2.35;;;33.40;39.50;;;;;;5070976;28;20469;-66
2021/06/16 12:00:52;;;;;;;2.60;2.22;;;33.60;39.20;;;;;;5070011;28;20036;-67
2021/06/16 12:03:19;;;;;;;8.52;3.15;;;33.60;38.70;;;;;;5070902;28;20055;-67
2021/06/16 12:05:45;;;;;;;3.42;2.72;;;33.60;39.00;;;;;;5069798;28;20504;-67
2021/06/16 12:08:10;;;;;;;4.97;2.80;;;33.70;39.60;;;;;;5069488;28;20028;-66
2021/06/16 12:10:36;;;;;;;4.05;2.70;;;33.80;39.90;;;;;;5051606;28;20023;-67
2021/06/16 12:13:06;;;;;;;2.92;2.63;;;34.00;39.70;;;;;;5070322;28;20025;-66
2021/06/16 12:15:34;;;;;;;3.95;2.70;;;33.90;39.70;;;;;;5058934;28;20032;-67
2021/06/16 12:18:00;;;;;;;3.47;3.17;;;34.00;38.10;;;;;;5051190;28;20025;-67
2021/06/16 12:20:29;;;;;;;2.30;2.10;;;33.90;38.50;;;;;;5049568;28;20048;-67
2021/06/16 12:22:56;;;;;;;4.30;2.90;;;33.80;36.90;;;;;;5068904;28;20050;-67
2021/06/16 12:25:33;;;;;;;2.65;2.45;;;33.80;37.50;;;;;;5073595;28;20397;-67
2021/06/16 12:28:00;;;;;;;2.55;2.35;;;33.70;38.00;;;;;;5067953;28;20032;-66
2021/06/16 12:30:29;;;;;;;4.03;2.38;;;33.90;38.40;;;;;;5073081;28;20025;-67
2021/06/16 12:33:38;;;;;;;3.70;2.60;;;34.00;38.00;;;;;;5068363;28;20028;-67
2021/06/16 12:36:07;;;;;;;4.30;2.55;;;34.20;37.80;;;;;;5068837;28;20486;-67
2021/06/16 12:38:42;;;;;;;5.35;2.83;;;34.10;38.20;;;;;;5072986;28;20052;-66
2021/06/16 12:41:31;;;;;;;4.72;2.60;;;34.10;38.50;;;;;;5073949;28;20430;-67
2021/06/16 12:44:35;;;;;;;3.03;2.22;;;34.20;38.50;;;;;;5074237;28;20040;-66
2021/06/16 12:47:05;;;;;;;6.03;2.83;;;34.20;38.70;;;;;;5074152;28;20350;-67
2021/06/16 12:49:39;;;;;;;3.60;2.60;;;34.40;39.00;;;;;;5072822;28;20024;-68
2021/06/16 12:52:07;;;;;;;2.78;2.55;;;34.70;38.20;;;;;;5066839;28;20033;-68
2021/06/16 12:54:45;;;;;;;5.07;2.78;;;34.80;37.10;;;;;;5072775;28;20052;-65